KEWN/EWN METAR and TAF weather

Enter ICAO airport designator
Station Type Date Time Source
KEWN METAR 2023/02/05 23:54 UTC NOAA

KEWN 052354Z AUTO 31005KT 10SM BKN060 OVC080 11/09 A3017 RMK AO2 SLP214 60003 T01060094 10150 20106 55008


Station Type Date Time Source
KEWN Decoded METAR 2023/02/05 23:54 UTC NOAA

New Bern, Craven County Regional Airport, NC, United States (KEWN) 35-04-03N 077-02-50W 3M
Feb 05, 2023 - 06:54 PM EST / 2023.02.05 2354 UTC
Wind: from the NW (310 degrees) at 6 MPH (5 KT):0
Visibility: 10 mile(s):0
Sky conditions: overcast
Temperature: 51.1 F (10.6 C)
Dew Point: 48.9 F (9.4 C)
Relative Humidity: 92%
Pressure (altimeter): 30.17 in. Hg (1021 hPa)
Pressure tendency: 0.02 inches (0.8 hPa) lower than three hours ago
ob: KEWN 052354Z AUTO 31005KT 10SM BKN060 OVC080 11/09 A3017 RMK AO2 SLP214 60003 T01060094 10150 20106 55008
cycle: 0

Station Type Date Time Source
KEWN TAF 2023/02/05 18:54 UTC NOAA

TAF KEWN 051753Z 0518/0618 00000KT P6SM VCSH OVC045
FM052100 VRB04KT 5SM -SHRA BR OVC020
FM060000 VRB03KT 4SM -SHRA BR OVC008
FM060300 VRB03KT P6SM OVC004
FM060700 28006KT 2SM BR BKN007
FM061200 32011G19KT P6SM FEW250

Example: see airport list